Time;durP1;ratioP1;P1;durP2;ratioP2;P2;SDS_P1;SDS_P2;PMS_P1;PMS_P2;Temp;Humidity;BMP_temperature;BMP_pressure;BME280_temperature;BME280_humidity;BME280_pressure;Samples;Min_cycle;Max_cycle;Signal;HPM_P1;HPM_P2
2022/10/02 00:01:29;;;;;;;24.77;10.38;;;10.70;99.90;;;;;;5091127;28;20048;-67
2022/10/02 00:03:57;;;;;;;25.77;10.82;;;10.70;99.90;;;;;;5086701;28;20097;-67
2022/10/02 00:06:24;;;;;;;27.80;11.43;;;10.60;99.90;;;;;;5087559;28;20105;-67
2022/10/02 00:08:58;;;;;;;29.30;10.75;;;10.70;99.90;;;;;;5091072;28;20043;-67
2022/10/02 00:11:42;;;;;;;29.98;12.30;;;10.60;99.90;;;;;;5099222;28;20035;-67
2022/10/02 00:14:12;;;;;;;19.95;9.98;;;10.60;99.90;;;;;;5094122;28;20105;-67
2022/10/02 00:16:59;;;;;;;29.73;12.68;;;10.60;99.90;;;;;;5102201;28;20416;-67
2022/10/02 00:19:25;;;;;;;23.77;11.70;;;10.60;99.90;;;;;;5095352;28;20058;-67
2022/10/02 00:22:19;;;;;;;26.92;11.38;;;10.60;99.90;;;;;;5111057;28;20055;-67
2022/10/02 00:25:03;;;;;;;49.42;13.00;;;10.70;99.90;;;;;;5109029;28;20047;-67
2022/10/02 00:27:40;;;;;;;28.42;12.80;;;10.70;99.90;;;;;;5111077;28;20039;-67
2022/10/02 00:30:11;;;;;;;39.33;13.75;;;10.60;99.90;;;;;;5105855;27;20125;-67
2022/10/02 00:32:45;;;;;;;34.42;13.70;;;10.60;99.90;;;;;;5104190;28;20040;-67
2022/10/02 00:35:35;;;;;;;27.60;12.93;;;10.60;99.90;;;;;;5108766;28;20835;-67
2022/10/02 00:38:25;;;;;;;30.90;13.07;;;10.60;99.90;;;;;;5110471;28;20396;-67
2022/10/02 00:41:09;;;;;;;21.83;11.23;;;10.60;99.90;;;;;;5100676;28;20042;-67
2022/10/02 00:44:08;;;;;;;30.70;14.65;;;10.60;99.90;;;;;;5102344;28;20105;-67
2022/10/02 00:46:57;;;;;;;30.77;12.68;;;10.60;99.90;;;;;;5097182;28;20045;-67
2022/10/02 00:49:38;;;;;;;27.27;11.43;;;10.60;99.90;;;;;;5107522;28;20086;-67
2022/10/02 00:52:24;;;;;;;35.53;13.35;;;10.60;99.90;;;;;;5093975;28;20047;-67
2022/10/02 00:55:18;;;;;;;43.33;12.98;;;10.60;99.90;;;;;;5105355;28;20092;-67
2022/10/02 00:58:26;;;;;;;35.75;13.38;;;10.50;99.90;;;;;;5101802;28;20081;-67
2022/10/02 01:01:02;;;;;;;41.45;14.15;;;10.60;99.90;;;;;;5080706;28;20078;-67
2022/10/02 01:03:39;;;;;;;39.22;13.00;;;10.50;99.90;;;;;;5108970;28;20040;-67
2022/10/02 01:06:07;;;;;;;30.30;13.20;;;10.60;99.90;;;;;;5110155;28;20047;-66
2022/10/02 01:08:34;;;;;;;38.90;13.20;;;10.50;99.90;;;;;;5109568;28;20825;-67
2022/10/02 01:11:01;;;;;;;29.52;11.15;;;10.50;99.90;;;;;;5095041;28;20097;-67
2022/10/02 01:13:28;;;;;;;26.08;11.13;;;10.50;99.90;;;;;;5108331;28;20732;-67
2022/10/02 01:15:57;;;;;;;25.10;11.80;;;10.50;99.90;;;;;;5102327;28;20039;-67
2022/10/02 01:18:23;;;;;;;24.75;10.23;;;10.50;99.90;;;;;;5108573;28;20039;-67
2022/10/02 01:20:57;;;;;;;27.95;10.50;;;10.50;99.90;;;;;;5109260;28;20066;-67
2022/10/02 01:23:52;;;;;;;25.38;10.55;;;10.50;99.90;;;;;;5091458;28;20093;-67
2022/10/02 01:26:18;;;;;;;22.48;9.60;;;10.50;99.90;;;;;;5097507;28;20178;-67
2022/10/02 01:28:44;;;;;;;25.85;9.48;;;10.40;99.90;;;;;;5108751;28;20047;-67
2022/10/02 01:31:13;;;;;;;27.15;9.52;;;10.50;99.90;;;;;;5090675;28;20036;-66
2022/10/02 01:33:41;;;;;;;32.47;10.55;;;10.50;99.90;;;;;;5109172;28;20047;-67
2022/10/02 01:36:12;;;;;;;30.58;9.98;;;10.40;99.90;;;;;;5101412;28;20028;-67
2022/10/02 01:38:39;;;;;;;19.65;9.57;;;10.40;99.90;;;;;;5100361;28;20038;-67
2022/10/02 01:41:08;;;;;;;21.67;9.32;;;10.30;99.90;;;;;;5107713;28;20085;-67
2022/10/02 01:43:38;;;;;;;19.67;9.27;;;10.50;99.90;;;;;;5106429;28;20035;-66
2022/10/02 01:46:16;;;;;;;28.23;10.35;;;10.40;99.90;;;;;;5106285;28;20052;-67
2022/10/02 01:48:45;;;;;;;22.73;8.77;;;10.40;99.90;;;;;;5080752;28;20453;-67
2022/10/02 01:51:24;;;;;;;21.50;9.13;;;10.40;99.90;;;;;;5108965;28;20105;-66
2022/10/02 01:53:59;;;;;;;25.88;8.95;;;10.40;99.90;;;;;;5095763;28;20032;-66
2022/10/02 01:56:39;;;;;;;23.35;10.25;;;10.40;99.90;;;;;;5109057;28;20047;-66
2022/10/02 01:59:17;;;;;;;31.15;11.32;;;10.40;99.90;;;;;;5105415;28;20525;-67
2022/10/02 02:02:17;;;;;;;16.70;4.25;;;10.40;99.90;;;;;;5105772;28;20051;-67
2022/10/02 02:04:53;;;;;;;24.05;6.53;;;10.40;99.90;;;;;;5094934;28;20051;-67
2022/10/02 02:07:26;;;;;;;22.02;8.48;;;10.40;99.90;;;;;;5108252;28;20043;-67
2022/10/02 02:10:03;;;;;;;36.65;9.75;;;10.40;99.90;;;;;;5099427;28;20066;-67
2022/10/02 02:12:59;;;;;;;31.80;10.73;;;10.50;99.90;;;;;;5107930;28;20704;-67
2022/10/02 02:15:28;;;;;;;22.63;8.82;;;10.50;99.90;;;;;;5107862;28;20055;-67
2022/10/02 02:18:07;;;;;;;21.45;8.40;;;10.40;99.90;;;;;;5087655;28;20047;-67
2022/10/02 02:20:35;;;;;;;;;;;10.50;99.90;;;;;;5074699;28;20512;-67
2022/10/02 02:23:11;;;;;;;21.33;4.47;;;10.50;99.90;;;;;;5088100;28;19946;-67
2022/10/02 02:25:40;;;;;;;26.40;7.97;;;10.50;99.90;;;;;;5074853;28;20044;-67
2022/10/02 02:28:11;;;;;;;16.83;5.70;;;10.70;99.90;;;;;;5086166;28;20089;-67
2022/10/02 02:30:38;;;;;;;30.02;10.63;;;10.50;99.90;;;;;;5082094;28;20493;-67
2022/10/02 02:33:10;;;;;;;23.25;9.25;;;10.60;99.90;;;;;;5086182;28;20048;-67
2022/10/02 02:35:42;;;;;;;27.08;9.52;;;10.60;99.90;;;;;;5086415;28;20058;-67
2022/10/02 02:38:22;;;;;;;8.65;4.00;;;10.60;99.90;;;;;;5084829;28;20290;-67
2022/10/02 02:40:49;;;;;;;19.90;9.52;;;10.60;99.90;;;;;;5074121;28;20044;-67
2022/10/02 02:43:26;;;;;;;25.40;9.55;;;10.90;99.90;;;;;;5067580;28;20119;-67
2022/10/02 02:45:58;;;;;;;30.90;10.60;;;10.60;99.90;;;;;;5086864;28;20048;-67
2022/10/02 02:48:31;;;;;;;25.55;8.80;;;10.60;99.90;;;;;;5087888;28;20047;-67
2022/10/02 02:51:03;;;;;;;29.98;10.95;;;10.60;99.90;;;;;;5069379;28;20048;-67
2022/10/02 02:53:50;;;;;;;26.13;9.80;;;10.70;99.90;;;;;;5080585;28;20075;-66
2022/10/02 02:56:19;;;;;;;35.38;11.23;;;10.60;99.90;;;;;;5069050;28;20155;-67
2022/10/02 02:58:55;;;;;;;37.35;9.80;;;10.60;99.90;;;;;;5072088;28;20044;-67
2022/10/02 03:01:21;;;;;;;32.13;10.45;;;10.60;99.90;;;;;;5078740;28;20051;-67
2022/10/02 03:03:47;;;;;;;30.80;10.38;;;10.60;99.90;;;;;;5082942;28;20040;-67
2022/10/02 03:06:16;;;;;;;31.00;12.50;;;10.60;99.90;;;;;;5080155;28;20043;-67
2022/10/02 03:08:42;;;;;;;19.10;9.10;;;10.60;99.90;;;;;;5078099;28;20045;-67
2022/10/02 03:11:30;;;;;;;22.52;10.45;;;10.60;99.90;;;;;;5077675;28;20180;-67
2022/10/02 03:14:14;;;;;;;27.42;10.63;;;10.60;99.90;;;;;;5079038;28;20074;-67
2022/10/02 03:17:17;;;;;;;27.73;10.80;;;10.60;99.90;;;;;;5087299;28;20052;-67
2022/10/02 03:19:59;;;;;;;18.70;9.52;;;10.60;99.90;;;;;;5096342;28;20064;-67
2022/10/02 03:22:48;;;;;;;35.17;11.57;;;10.60;99.90;;;;;;5095427;28;20409;-67
2022/10/02 03:25:30;;;;;;;29.55;12.00;;;10.60;99.90;;;;;;5099130;28;20100;-67
2022/10/02 03:28:19;;;;;;;26.98;10.65;;;10.60;99.90;;;;;;5106357;28;20051;-67
2022/10/02 03:30:46;;;;;;;34.00;11.20;;;10.60;99.90;;;;;;5103989;28;20048;-67
2022/10/02 03:33:14;;;;;;;34.88;10.90;;;10.70;99.90;;;;;;5089366;28;20047;-66
2022/10/02 03:35:41;;;;;;;40.95;11.07;;;10.70;99.90;;;;;;5103846;28;20119;-67
2022/10/02 03:38:12;;;;;;;27.17;10.43;;;10.70;99.90;;;;;;5101655;28;20493;-67
2022/10/02 03:40:37;;;;;;;27.73;10.60;;;10.70;99.90;;;;;;5103365;28;20452;-67
2022/10/02 03:43:03;;;;;;;37.20;11.50;;;10.70;99.90;;;;;;5101064;28;20135;-67
2022/10/02 03:45:29;;;;;;;31.55;9.65;;;10.80;99.90;;;;;;5111570;28;20054;-67
2022/10/02 03:47:55;;;;;;;23.13;9.48;;;10.80;99.90;;;;;;5105951;28;20078;-67
2022/10/02 03:50:21;;;;;;;44.08;8.75;;;10.80;99.90;;;;;;5102596;28;20078;-68
2022/10/02 03:52:52;;;;;;;25.17;9.32;;;10.80;99.90;;;;;;5110764;27;20039;-67
2022/10/02 03:55:17;;;;;;;30.98;8.27;;;10.80;99.90;;;;;;5108571;28;21077;-67
2022/10/02 03:57:45;;;;;;;30.92;8.40;;;10.90;99.90;;;;;;5100955;28;20043;-67
2022/10/02 04:00:18;;;;;;;29.70;9.27;;;10.90;99.90;;;;;;5111346;28;20105;-67
2022/10/02 04:03:08;;;;;;;24.30;8.10;;;10.90;99.90;;;;;;5111581;28;20048;-67
2022/10/02 04:05:55;;;;;;;41.67;8.60;;;10.90;99.90;;;;;;5107226;28;20047;-67
2022/10/02 04:08:45;;;;;;;18.02;6.30;;;10.90;99.90;;;;;;5111230;28;20441;-67
2022/10/02 04:11:23;;;;;;;27.15;8.27;;;11.00;99.90;;;;;;5107127;28;20089;-66
2022/10/02 04:14:12;;;;;;;25.20;7.72;;;10.90;99.90;;;;;;5102791;28;20162;-67
2022/10/02 04:16:48;;;;;;;33.30;7.13;;;11.00;99.90;;;;;;5108014;28;20036;-67
2022/10/02 04:19:28;;;;;;;10.75;6.03;;;11.00;99.90;;;;;;5110540;28;20083;-67
2022/10/02 04:22:04;;;;;;;23.45;7.00;;;11.00;99.90;;;;;;5099734;28;20044;-67
2022/10/02 04:24:38;;;;;;;22.95;6.55;;;11.00;99.90;;;;;;5090986;28;20123;-67
2022/10/02 04:27:13;;;;;;;14.98;5.38;;;11.00;99.90;;;;;;5099474;28;20408;-67
2022/10/02 04:29:54;;;;;;;22.42;6.68;;;11.00;99.90;;;;;;5106295;28;20051;-67
2022/10/02 04:32:22;;;;;;;15.88;5.78;;;11.00;99.90;;;;;;5093432;28;20052;-67
2022/10/02 04:34:48;;;;;;;23.98;7.00;;;10.90;99.90;;;;;;5107467;28;20488;-67
2022/10/02 04:37:30;;;;;;;17.80;6.53;;;10.90;99.90;;;;;;5110418;28;20051;-67
2022/10/02 04:40:05;;;;;;;27.00;7.28;;;10.90;99.90;;;;;;5099828;28;20118;-67
2022/10/02 04:42:58;;;;;;;16.45;6.22;;;10.90;99.90;;;;;;5092116;28;20119;-67
2022/10/02 04:45:25;;;;;;;7.90;2.55;;;10.90;99.90;;;;;;5103083;28;20067;-67
2022/10/02 04:47:58;;;;;;;22.05;5.43;;;10.80;99.90;;;;;;5099911;28;20124;-67
2022/10/02 04:50:51;;;;;;;12.60;5.60;;;10.80;99.90;;;;;;5096845;28;20047;-67
2022/10/02 04:53:34;;;;;;;20.15;6.03;;;10.80;99.90;;;;;;5091200;28;20066;-67
2022/10/02 04:56:26;;;;;;;13.07;5.70;;;10.80;99.90;;;;;;5102281;28;20485;-67
2022/10/02 04:59:39;;;;;;;17.75;6.13;;;10.80;99.90;;;;;;5091039;28;20048;-67
2022/10/02 05:02:25;;;;;;;21.27;6.90;;;10.80;99.90;;;;;;5082167;28;20557;-67
2022/10/02 05:05:13;;;;;;;29.52;6.78;;;10.70;99.90;;;;;;5109436;28;20052;-67
2022/10/02 05:07:47;;;;;;;38.25;7.47;;;10.70;99.90;;;;;;5098582;28;20481;-67
2022/10/02 05:10:32;;;;;;;24.52;5.60;;;10.70;99.90;;;;;;5099453;28;20129;-67
2022/10/02 05:13:36;;;;;;;29.98;3.05;;;10.70;99.90;;;;;;5106302;28;20036;-67
2022/10/02 05:16:29;;;;;;;21.52;6.22;;;10.60;99.90;;;;;;5109981;28;20400;-67
2022/10/02 05:19:44;;;;;;;15.15;6.97;;;10.60;99.90;;;;;;5098584;28;20926;-67
2022/10/02 05:22:33;;;;;;;11.05;2.70;;;10.60;99.90;;;;;;5085301;28;20046;-67
2022/10/02 05:25:20;;;;;;;22.63;7.03;;;10.60;99.90;;;;;;5069419;28;20048;-67
2022/10/02 05:28:21;;;;;;;21.70;6.70;;;10.60;99.90;;;;;;5097811;28;20055;-67
2022/10/02 05:31:02;;;;;;;19.77;6.78;;;10.50;99.90;;;;;;5089686;28;20157;-67
2022/10/02 05:33:44;;;;;;;27.08;6.95;;;10.50;99.90;;;;;;5094802;28;20066;-67
2022/10/02 05:36:26;;;;;;;24.25;7.22;;;10.50;99.90;;;;;;5095253;28;20048;-67
2022/10/02 05:39:06;;;;;;;17.85;6.00;;;10.50;99.90;;;;;;5099567;28;20040;-67
2022/10/02 05:41:46;;;;;;;21.58;6.95;;;10.50;99.90;;;;;;5108436;28;20059;-67
2022/10/02 05:44:26;;;;;;;27.00;7.22;;;10.50;99.90;;;;;;5094031;28;20085;-67
2022/10/02 05:47:05;;;;;;;25.63;7.47;;;10.50;99.90;;;;;;5099153;28;20122;-67
2022/10/02 05:49:34;;;;;;;22.50;7.15;;;10.50;99.90;;;;;;5099804;28;20046;-67
2022/10/02 05:52:05;;;;;;;11.65;3.38;;;10.50;99.90;;;;;;5093131;28;20044;-67
2022/10/02 05:54:31;;;;;;;20.17;7.72;;;10.50;99.90;;;;;;5105819;28;20055;-67
2022/10/02 05:57:10;;;;;;;22.52;6.72;;;10.40;99.90;;;;;;5102302;28;20043;-67
2022/10/02 05:59:46;;;;;;;25.15;7.53;;;10.50;99.90;;;;;;5105768;28;20039;-67
2022/10/02 06:02:31;;;;;;;26.15;6.93;;;10.50;99.90;;;;;;5107975;28;20079;-67
2022/10/02 06:05:05;;;;;;;14.85;5.90;;;10.50;99.90;;;;;;5102903;28;20036;-67
2022/10/02 06:07:32;;;;;;;17.30;7.40;;;10.60;99.90;;;;;;5107960;28;20039;-67
2022/10/02 06:10:15;;;;;;;19.85;6.95;;;10.60;99.90;;;;;;5108092;28;20050;-67
2022/10/02 06:12:49;;;;;;;2.53;2.33;;;10.60;99.90;;;;;;5103245;28;20427;-67
2022/10/02 06:15:21;;;;;;;9.57;2.92;;;10.70;99.90;;;;;;5108083;28;20096;-67
2022/10/02 06:17:53;;;;;;;17.05;5.82;;;10.70;99.90;;;;;;5107523;28;20043;-67
2022/10/02 06:20:27;;;;;;;28.52;7.20;;;10.80;99.90;;;;;;5106225;28;20413;-67
2022/10/02 06:23:19;;;;;;;24.05;8.07;;;10.90;99.90;;;;;;5091881;28;20113;-67
2022/10/02 06:25:56;;;;;;;22.23;7.20;;;11.00;99.90;;;;;;5100521;28;20043;-67
2022/10/02 06:28:25;;;;;;;23.27;6.50;;;11.10;99.90;;;;;;5104680;28;20107;-67
2022/10/02 06:31:31;;;;;;;19.05;6.13;;;11.20;99.90;;;;;;5101832;28;20833;-67
2022/10/02 06:33:57;;;;;;;21.08;6.43;;;11.30;99.90;;;;;;5106512;28;20127;-67
2022/10/02 06:36:41;;;;;;;23.15;6.95;;;11.30;99.90;;;;;;5102847;28;20126;-67
2022/10/02 06:39:42;;;;;;;22.55;6.78;;;11.40;99.90;;;;;;5087762;28;20059;-68
2022/10/02 06:42:10;;;;;;;17.02;6.63;;;11.50;99.90;;;;;;5090978;28;20052;-68
2022/10/02 06:44:58;;;;;;;35.50;6.97;;;11.70;99.90;;;;;;5091275;28;20036;-67
2022/10/02 06:47:48;;;;;;;19.17;7.18;;;11.60;99.90;;;;;;5098405;28;20036;-67
2022/10/02 06:50:41;;;;;;;8.15;3.95;;;11.70;99.90;;;;;;5106238;28;20051;-68
2022/10/02 06:53:22;;;;;;;17.88;5.78;;;11.70;99.90;;;;;;5104248;28;20047;-68
2022/10/02 06:56:11;;;;;;;5.88;3.05;;;11.70;99.90;;;;;;5094682;28;20047;-67
2022/10/02 06:59:02;;;;;;;18.70;1.95;;;11.80;99.90;;;;;;5099020;28;20059;-67
2022/10/02 07:01:38;;;;;;;20.65;6.32;;;11.70;99.90;;;;;;5107774;28;20094;-68
2022/10/02 07:04:16;;;;;;;8.57;2.25;;;11.80;99.90;;;;;;5101433;28;20050;-67
2022/10/02 07:07:29;;;;;;;37.80;7.38;;;11.90;99.90;;;;;;5100058;28;20055;-67
2022/10/02 07:10:11;;;;;;;20.90;6.93;;;11.90;99.90;;;;;;5093509;28;20128;-68
2022/10/02 07:13:12;;;;;;;30.92;7.55;;;11.90;99.90;;;;;;5088115;28;20385;-67
2022/10/02 07:15:43;;;;;;;25.13;6.13;;;12.00;99.90;;;;;;5071545;28;20059;-67
2022/10/02 07:18:27;;;;;;;3.92;2.25;;;12.00;99.90;;;;;;5107862;28;20082;-68
2022/10/02 07:21:24;;;;;;;12.63;3.47;;;12.10;99.90;;;;;;5096761;28;20055;-67
2022/10/02 07:24:09;;;;;;;27.23;8.27;;;12.10;99.90;;;;;;5100328;28;20055;-67
2022/10/02 07:27:09;;;;;;;17.65;7.57;;;12.20;99.90;;;;;;5099829;28;20423;-67
2022/10/02 07:29:46;;;;;;;19.02;6.35;;;12.30;99.90;;;;;;5093416;28;20052;-68
2022/10/02 07:32:50;;;;;;;34.65;7.43;;;12.40;99.90;;;;;;5097991;28;20534;-68
2022/10/02 07:35:55;;;;;;;22.40;6.97;;;12.60;99.90;;;;;;5092357;28;20108;-68
2022/10/02 07:38:42;;;;;;;23.88;7.47;;;12.70;99.90;;;;;;5096969;28;20223;-68
2022/10/02 07:41:19;;;;;;;26.27;6.45;;;12.90;99.90;;;;;;5096215;28;20056;-68
2022/10/02 07:43:51;;;;;;;30.10;8.55;;;13.10;99.90;;;;;;5091607;28;20576;-68
2022/10/02 07:46:23;;;;;;;27.50;8.30;;;13.10;99.90;;;;;;5102531;28;20412;-68
2022/10/02 07:49:28;;;;;;;34.50;8.77;;;13.10;99.90;;;;;;5106105;28;20043;-68
2022/10/02 07:52:05;;;;;;;31.45;7.40;;;13.20;99.90;;;;;;5090130;28;20059;-68
2022/10/02 07:54:48;;;;;;;24.92;7.57;;;13.00;99.90;;;;;;5106511;28;20075;-68
2022/10/02 07:57:35;;;;;;;22.80;7.80;;;13.20;99.90;;;;;;5109216;28;20409;-68
2022/10/02 08:00:15;;;;;;;24.13;7.07;;;13.20;99.90;;;;;;5103252;28;20109;-67
2022/10/02 08:03:07;;;;;;;35.28;8.15;;;13.20;99.90;;;;;;5106403;28;20502;-67
2022/10/02 08:05:45;;;;;;;23.88;7.07;;;13.40;99.90;;;;;;5111094;28;20036;-68
2022/10/02 08:08:20;;;;;;;22.35;6.18;;;13.20;99.90;;;;;;5098884;28;20040;-68
2022/10/02 08:10:54;;;;;;;25.52;6.00;;;13.10;99.90;;;;;;5113507;27;20052;-68
2022/10/02 08:13:44;;;;;;;25.77;7.40;;;13.10;99.90;;;;;;5105069;28;20051;-68
2022/10/02 08:16:13;;;;;;;30.52;8.00;;;13.00;99.90;;;;;;5098107;28;20075;-67
2022/10/02 08:18:55;;;;;;;19.17;6.75;;;13.00;99.90;;;;;;5103027;27;20062;-67
2022/10/02 08:21:24;;;;;;;20.70;7.35;;;13.10;99.90;;;;;;5110427;28;20054;-68
2022/10/02 08:24:00;;;;;;;37.38;7.68;;;13.20;99.90;;;;;;5102397;28;20337;-68
2022/10/02 08:26:31;;;;;;;29.08;8.57;;;13.40;99.90;;;;;;5107466;28;20152;-67
2022/10/02 08:29:07;;;;;;;16.98;7.68;;;13.60;99.90;;;;;;5096536;28;20052;-68
2022/10/02 08:31:32;;;;;;;25.08;8.93;;;13.80;99.90;;;;;;5103320;28;20052;-68
2022/10/02 08:34:19;;;;;;;29.23;8.20;;;13.80;99.90;;;;;;5110197;28;20050;-68
2022/10/02 08:37:07;;;;;;;23.23;6.70;;;13.80;99.90;;;;;;5110705;28;20051;-68
2022/10/02 08:39:43;;;;;;;;;;;13.90;99.90;;;;;;5102577;28;20058;-68
2022/10/02 08:42:24;;;;;;;41.25;7.88;;;14.00;99.90;;;;;;5107281;28;19927;-68
2022/10/02 08:45:28;;;;;;;29.02;8.10;;;14.10;99.90;;;;;;5096532;28;20032;-69
2022/10/02 08:48:14;;;;;;;28.05;7.80;;;14.20;99.90;;;;;;5098150;28;20048;-69
2022/10/02 08:50:46;;;;;;;32.92;7.30;;;14.40;99.90;;;;;;5103606;28;20040;-68
2022/10/02 08:53:14;;;;;;;29.33;8.05;;;14.50;99.90;;;;;;5095339;28;20416;-68
2022/10/02 08:56:04;;;;;;;32.00;6.35;;;14.70;99.90;;;;;;5102295;28;20177;-68
2022/10/02 08:59:06;;;;;;;25.83;6.53;;;14.80;99.90;;;;;;5099079;28;20488;-69
2022/10/02 09:01:52;;;;;;;24.60;7.10;;;15.00;99.90;;;;;;5101510;28;20127;-69
2022/10/02 09:04:50;;;;;;;16.83;6.50;;;15.20;99.90;;;;;;5107114;28;20100;-69
2022/10/02 09:07:55;;;;;;;17.63;5.60;;;15.40;99.90;;;;;;5098318;28;20052;-69
2022/10/02 09:10:44;;;;;;;19.13;5.78;;;15.60;99.90;;;;;;5086324;28;20063;-69
2022/10/02 09:13:39;;;;;;;20.45;6.75;;;15.70;99.90;;;;;;5100274;28;20410;-69
2022/10/02 09:16:36;;;;;;;28.38;7.13;;;15.70;99.90;;;;;;5098452;28;20483;-69
2022/10/02 09:19:06;;;;;;;40.95;7.60;;;15.90;99.90;;;;;;5103702;28;20108;-69
2022/10/02 09:21:55;;;;;;;23.02;6.95;;;16.00;99.90;;;;;;5108636;28;20044;-69
2022/10/02 09:25:00;;;;;;;30.42;6.32;;;16.10;99.90;;;;;;5093393;28;20048;-70
2022/10/02 09:27:41;;;;;;;30.30;7.88;;;16.40;99.90;;;;;;5105327;28;20535;-69
2022/10/02 09:30:09;;;;;;;19.75;6.03;;;16.70;99.90;;;;;;5095791;28;20075;-69
2022/10/02 09:33:02;;;;;;;18.92;7.80;;;16.70;99.90;;;;;;5108319;28;20043;-69
2022/10/02 09:36:01;;;;;;;36.92;7.47;;;16.90;99.90;;;;;;5096215;28;20047;-68
2022/10/02 09:38:55;;;;;;;20.38;6.38;;;16.70;99.90;;;;;;5093912;28;20150;-68
2022/10/02 09:41:40;;;;;;;36.35;10.05;;;16.70;99.90;;;;;;5106897;28;20043;-69
2022/10/02 09:44:37;;;;;;;21.80;6.50;;;16.80;99.90;;;;;;5108764;28;20112;-69
2022/10/02 09:47:23;;;;;;;27.17;6.68;;;16.80;99.90;;;;;;5104851;28;20047;-68
2022/10/02 09:50:17;;;;;;;20.58;6.35;;;16.80;99.90;;;;;;5094487;28;20093;-69
2022/10/02 09:53:03;;;;;;;16.05;6.03;;;16.70;99.90;;;;;;5092212;28;20040;-68
2022/10/02 09:56:10;;;;;;;20.35;6.00;;;16.70;99.90;;;;;;5094467;28;20101;-68
2022/10/02 09:58:45;;;;;;;17.00;5.65;;;16.60;99.90;;;;;;5081334;28;20083;-68
2022/10/02 10:01:30;;;;;;;22.55;6.25;;;16.50;99.90;;;;;;5102643;27;20055;-69
2022/10/02 10:04:07;;;;;;;20.35;6.13;;;16.50;99.90;;;;;;5098313;27;20051;-69
2022/10/02 10:06:53;;;;;;;20.63;6.30;;;16.50;99.90;;;;;;5102789;28;20063;-69
2022/10/02 10:09:52;;;;;;;27.30;7.28;;;16.40;99.90;;;;;;5100265;28;20040;-69
2022/10/02 10:12:31;;;;;;;14.25;5.68;;;16.40;99.90;;;;;;5092145;28;20050;-69
2022/10/02 10:15:45;;;;;;;14.75;4.97;;;16.30;99.90;;;;;;5098467;28;20052;-69
2022/10/02 10:18:43;;;;;;;20.23;6.70;;;16.20;99.90;;;;;;5051303;28;20044;-69
2022/10/02 10:21:30;;;;;;;13.18;5.22;;;16.20;99.90;;;;;;5102281;28;20505;-70
2022/10/02 10:24:12;;;;;;;20.87;5.57;;;16.20;99.90;;;;;;5098496;28;20052;-69
2022/10/02 10:27:15;;;;;;;15.70;4.80;;;16.30;99.90;;;;;;5101583;28;20303;-69
2022/10/02 10:30:02;;;;;;;20.80;5.53;;;16.40;99.90;;;;;;5093789;28;20097;-69
2022/10/02 10:32:44;;;;;;;18.67;5.85;;;16.60;99.90;;;;;;5105602;28;20048;-69
2022/10/02 10:35:52;;;;;;;25.65;6.70;;;16.80;99.90;;;;;;5098906;28;20459;-69
2022/10/02 10:38:51;;;;;;;21.73;5.30;;;16.90;99.90;;;;;;5092762;28;20040;-69
2022/10/02 10:41:37;;;;;;;17.88;5.95;;;17.00;99.90;;;;;;5089214;28;20074;-70
2022/10/02 10:44:27;;;;;;;21.83;4.93;;;16.90;99.90;;;;;;5088712;28;20044;-69
2022/10/02 10:47:01;;;;;;;35.42;5.18;;;16.80;99.90;;;;;;5095366;28;20071;-69
2022/10/02 10:49:56;;;;;;;24.83;5.47;;;16.80;99.90;;;;;;5097440;28;20173;-69
2022/10/02 10:52:50;;;;;;;18.92;4.90;;;16.90;99.90;;;;;;5104947;28;20134;-69
2022/10/02 10:55:56;;;;;;;23.92;5.95;;;17.10;99.90;;;;;;5107414;28;20052;-69
2022/10/02 10:58:46;;;;;;;18.20;5.20;;;17.20;99.90;;;;;;5105080;28;20050;-70
2022/10/02 11:01:35;;;;;;;20.13;5.75;;;17.30;99.90;;;;;;5096709;28;20084;-69
2022/10/02 11:04:32;;;;;;;17.83;5.20;;;17.50;99.90;;;;;;5104514;28;20047;-69
2022/10/02 11:06:57;;;;;;;30.88;5.43;;;17.50;99.90;;;;;;5103643;28;20087;-70
2022/10/02 11:09:25;;;;;;;20.70;4.95;;;17.60;99.90;;;;;;5102771;28;20083;-69
2022/10/02 11:12:38;;;;;;;19.58;5.85;;;17.70;99.90;;;;;;5098061;28;20549;-69
2022/10/02 11:15:18;;;;;;;17.67;5.25;;;17.90;99.90;;;;;;5098851;28;20039;-70
2022/10/02 11:18:01;;;;;;;20.38;5.32;;;18.10;99.90;;;;;;5095611;28;20111;-69
2022/10/02 11:20:55;;;;;;;21.02;5.30;;;18.10;99.90;;;;;;5107726;28;20093;-69
2022/10/02 11:23:42;;;;;;;25.15;5.70;;;18.00;99.90;;;;;;5102602;28;20525;-70
2022/10/02 11:26:39;;;;;;;21.23;5.15;;;17.90;99.90;;;;;;5106922;28;20043;-70
2022/10/02 11:29:42;;;;;;;33.20;6.20;;;17.70;99.90;;;;;;5087646;28;20177;-69
2022/10/02 11:32:30;;;;;;;19.90;6.30;;;17.50;99.90;;;;;;5099390;28;20040;-69
2022/10/02 11:34:57;;;;;;;;;;;17.50;99.90;;;;;;5091096;28;20060;-70
2022/10/02 11:37:38;;;;;;;17.48;4.30;;;17.50;99.90;;;;;;5091409;28;20415;-69
2022/10/02 11:40:19;;;;;;;20.48;4.55;;;17.70;99.90;;;;;;5106720;28;20054;-69
2022/10/02 11:43:19;;;;;;;25.17;5.00;;;17.90;99.90;;;;;;5102024;28;20063;-69
2022/10/02 11:46:24;;;;;;;25.58;5.57;;;17.90;99.90;;;;;;5090171;28;20086;-69
2022/10/02 11:49:31;;;;;;;25.15;6.47;;;18.00;99.90;;;;;;5103496;28;20071;-69
2022/10/02 11:52:18;;;;;;;14.90;4.82;;;18.20;99.90;;;;;;5103126;28;20851;-69
2022/10/02 11:55:14;;;;;;;19.33;5.05;;;18.30;99.90;;;;;;5088817;28;20056;-69
2022/10/02 11:58:08;;;;;;;17.55;5.28;;;18.40;99.90;;;;;;5093266;28;20051;-69
2022/10/02 12:00:44;;;;;;;23.20;4.97;;;18.60;99.90;;;;;;5104993;28;20508;-69
2022/10/02 12:03:18;;;;;;;17.73;4.55;;;18.50;99.90;;;;;;5108088;28;20126;-69
2022/10/02 12:06:03;;;;;;;14.95;3.95;;;18.70;99.90;;;;;;5102863;27;20039;-69
2022/10/02 12:08:34;;;;;;;27.60;6.25;;;18.90;99.90;;;;;;5109112;28;20563;-69
2022/10/02 12:11:25;;;;;;;19.15;4.47;;;18.80;99.90;;;;;;5107389;28;20040;-69
2022/10/02 12:13:58;;;;;;;17.63;4.78;;;18.90;99.90;;;;;;5096233;28;20052;-70
2022/10/02 12:16:38;;;;;;;15.25;4.85;;;19.00;99.90;;;;;;5092542;28;20052;-70
2022/10/02 12:19:30;;;;;;;13.75;3.95;;;19.20;99.90;;;;;;5100254;28;20101;-70
2022/10/02 12:28:49;;;;;;;17.77;4.10;;;19.20;99.90;;;;;;5100805;28;20052;-70
2022/10/02 12:31:51;;;;;;;14.88;4.50;;;19.20;99.90;;;;;;5108932;28;20051;-71
2022/10/02 12:34:23;;;;;;;21.70;4.43;;;19.20;99.90;;;;;;5103331;28;20035;-70
2022/10/02 12:36:57;;;;;;;13.18;2.83;;;19.20;99.90;;;;;;5109119;28;20058;-71
2022/10/02 12:39:34;;;;;;;14.57;4.28;;;19.30;99.90;;;;;;5109867;28;20088;-71
2022/10/02 12:42:25;;;;;;;14.73;4.10;;;19.20;99.90;;;;;;5107215;28;20484;-71
2022/10/02 12:45:32;;;;;;;28.23;4.15;;;19.20;99.90;;;;;;5109140;28;20047;-71
2022/10/02 12:48:00;;;;;;;11.17;3.90;;;19.00;99.90;;;;;;5099744;28;20084;-71
2022/10/02 12:50:38;;;;;;;15.52;4.15;;;18.80;99.90;;;;;;5089859;28;20062;-71
2022/10/02 12:53:22;;;;;;;16.65;3.80;;;18.70;99.90;;;;;;5099480;28;20132;-72
2022/10/02 12:56:26;;;;;;;17.48;5.75;;;18.60;99.90;;;;;;5104974;28;20191;-72
2022/10/02 12:59:16;;;;;;;18.50;4.90;;;18.40;99.90;;;;;;5066962;28;20497;-72
2022/10/02 13:02:19;;;;;;;25.10;4.13;;;18.40;99.90;;;;;;5109016;28;20088;-72
2022/10/02 13:04:56;;;;;;;9.80;3.92;;;18.40;99.90;;;;;;5111836;27;20051;-72
2022/10/02 13:07:25;;;;;;;14.40;4.10;;;18.40;99.90;;;;;;5093248;27;20047;-72
2022/10/02 13:09:59;;;;;;;;;;;18.60;99.90;;;;;;5089480;28;20131;-71
2022/10/02 13:12:49;;;;;;;12.73;4.05;;;18.50;99.90;;;;;;5091421;28;19989;-71
2022/10/02 13:15:41;;;;;;;16.92;4.65;;;18.60;99.90;;;;;;5105082;28;20511;-71
2022/10/02 13:18:51;;;;;;;15.82;4.07;;;18.70;99.90;;;;;;5094535;27;20067;-71
2022/10/02 13:21:36;;;;;;;15.73;4.60;;;18.70;99.90;;;;;;5106638;28;20187;-71
2022/10/02 13:24:22;;;;;;;18.38;4.05;;;18.60;99.90;;;;;;5107215;28;20636;-71
2022/10/02 13:27:10;;;;;;;19.83;3.92;;;18.60;99.90;;;;;;5107767;28;20123;-71
2022/10/02 13:29:59;;;;;;;16.77;4.30;;;18.60;99.90;;;;;;5107970;28;20104;-71
2022/10/02 13:32:32;;;;;;;11.38;4.72;;;18.70;99.90;;;;;;5101319;28;20067;-71
2022/10/02 13:35:25;;;;;;;14.13;3.72;;;18.70;99.90;;;;;;5093394;28;20079;-71
2022/10/02 13:38:24;;;;;;;11.13;2.97;;;18.70;99.90;;;;;;5096017;28;20050;-71
2022/10/02 13:41:06;;;;;;;24.40;4.15;;;18.70;99.90;;;;;;5102359;28;20058;-71
2022/10/02 13:43:39;;;;;;;11.25;3.20;;;18.50;99.90;;;;;;5098717;28;20109;-71
2022/10/02 13:46:12;;;;;;;11.77;3.80;;;18.50;99.90;;;;;;5109225;28;20048;-71
2022/10/02 13:48:59;;;;;;;16.83;4.90;;;18.60;99.90;;;;;;5102545;28;20082;-72
2022/10/02 13:51:49;;;;;;;12.45;3.25;;;18.60;99.90;;;;;;5092323;27;20067;-72
2022/10/02 13:54:35;;;;;;;22.08;4.60;;;18.60;99.90;;;;;;5101366;28;20474;-72
2022/10/02 13:57:23;;;;;;;15.68;3.33;;;18.60;99.90;;;;;;5101323;28;20122;-71
2022/10/02 14:00:08;;;;;;;17.17;4.05;;;18.50;99.90;;;;;;5076608;28;20092;-72